Gillette, WY

12:46 PM MDT on September 01, 2014 (GMT -0600)
RAWS ECHETA WY US | Change Station
CLOSE
Current Station
Personal Weather Station
Location: Gillette, WY
Elevation: 4396 ft
Nearby Weather Stations

Elev 4396 ft 44.47 °N, 105.84 °W | Updated 55 minutes ago

Overcast
Overcast
57 °F
Feels Like 57 °F
N
15
Wind Variable Wind from North
Gusts 24.0 mph

Today
High -- | Low -- °F
--% Chance of Precip.
Yesterday
High -- | Low -- °F
Precip. -- in
6:25 AM 7:39 PM
Waxing Crescent, 43% visible
Pressure 29.96 in
Visibility 10.0 miles
Clouds Scattered Clouds 3900 ft
Mostly Cloudy 5000 ft
Overcast 7500 ft
Dew Point 43 °F
Humidity 60%
Rainfall 0.00 in
Snow Depth Not available.
UV 2 out of 12
Pollen 7.30 out of 12
Air Quality Not available.
Flu Activity Not available.
METAR KGCC 011753Z AUTO 33011KT 10SM SCT039 BKN050 OVC075 15/07 A3002 RMK AO2 SLP144 60000 T01500072 10161 20106 53007

More Conditions Fewer Conditions

Pressure 29.96 in
Visibility 10.0 miles
Clouds Scattered Clouds 3900 ft
Mostly Cloudy 5000 ft
Overcast 7500 ft
Dew Point 43 °F
Humidity 60%
Rainfall 0.00 in
Snow Depth Not available.
UV 2 out of 12
Pollen 7.30 out of 12
Air Quality Not available.
Flu Activity Not available.
METAR KGCC 011753Z AUTO 33011KT 10SM SCT039 BKN050 OVC075 15/07 A3002 RMK AO2 SLP144 60000 T01500072 10161 20106 53007

More Conditions Fewer Conditions

10-Day Weather Forecast

Almanac

Astronomy

Sep. 01, 2014 Rise Set
Actual Time 6:25 AM MDT 7:39 PM MDT
Civil Twilight 5:55 AM MDT 8:09 PM MDT
Nautical Twilight 5:19 AM MDT 8:45 PM MDT
Astronomical Twilight 4:40 AM MDT 9:23 PM MDT
Moon 1:29 PM MDT 11:25 PM MDT
Length of Visible Light 14h 13m
Length of Day
13h 13m
Tomorrow will be 2m 59s shorter.
Waxing Crescent, 43% of the Moon is Illuminated
Today
Waxing Crescent
Sep 2
First Quarter
Sep 8
Full
Sep 15
Last Quarter
Sep 24
New

Today's Extremes

State Highs State Lows

Community

WunderPhotos

Upload Photos

1,749,359 photos uploaded!

Nearby

Snow Depth

Station Depth Elevation
Cole Canyon 0 in 5910 ft
Hansen Sawmill 0 in 8360 ft
Big Goose 0 in 7990 ft
Powder River Pass 0 in 9480 ft
Dome Lake 0 in 8880 ft

Earthquake Activity

City Distance Mag. Time & Date
No recent earthquake activity has been reported nearby.
Minimum magnitude displayed is 2.5.

Coastal Water Temperatures

Place Temperature
No Stations Reporting

Nearby Weather Stations